createdAt,value
2018-07-04T00:00:47.985Z,0.00
2018-07-04T00:01:47.982Z,0.00
2018-07-04T00:02:47.979Z,0.00
2018-07-04T00:03:48.308Z,0.00
2018-07-04T00:04:47.977Z,0.00
2018-07-04T00:05:47.973Z,0.00
2018-07-04T00:06:47.941Z,0.00
2018-07-04T00:07:47.932Z,0.00
2018-07-04T00:08:47.921Z,0.00
2018-07-04T00:09:47.911Z,0.00
2018-07-04T00:10:48.053Z,0.00
2018-07-04T00:11:47.893Z,0.00
2018-07-04T00:12:47.896Z,0.00
2018-07-04T00:13:51.380Z,0.00
2018-07-04T00:14:47.923Z,0.00
2018-07-04T00:15:47.931Z,0.00
2018-07-04T00:16:47.869Z,0.00
2018-07-04T00:17:54.821Z,0.00
2018-07-04T00:18:47.846Z,0.00
2018-07-04T00:19:47.851Z,0.00
2018-07-04T00:20:49.943Z,0.00
2018-07-04T00:21:47.827Z,0.00
2018-07-04T00:22:47.819Z,0.00
2018-07-04T00:23:47.808Z,0.00
2018-07-04T00:24:47.790Z,0.00
2018-07-04T00:25:47.848Z,0.00
2018-07-04T00:26:47.787Z,0.00
2018-07-04T00:27:47.766Z,0.00
2018-07-04T00:28:47.766Z,0.00
2018-07-04T00:29:47.758Z,0.00
2018-07-04T00:30:47.740Z,0.00
2018-07-04T00:31:47.737Z,0.00
2018-07-04T00:32:47.741Z,0.00
2018-07-04T00:33:47.719Z,0.00
2018-07-04T00:34:47.750Z,0.00
2018-07-04T00:35:47.712Z,0.00
2018-07-04T00:36:47.692Z,0.00
2018-07-04T00:37:47.825Z,0.00
2018-07-04T00:38:47.683Z,0.00
2018-07-04T00:39:47.679Z,0.00
2018-07-04T00:40:47.662Z,0.00
2018-07-04T00:41:47.656Z,0.00
2018-07-04T00:42:47.648Z,0.00
2018-07-04T00:43:47.642Z,0.00
2018-07-04T00:44:48.638Z,0.00
2018-07-04T00:45:47.621Z,0.00
2018-07-04T00:46:47.625Z,0.00
2018-07-04T00:47:47.771Z,0.00
2018-07-04T00:48:47.610Z,0.00
2018-07-04T00:49:47.603Z,0.00
2018-07-04T00:50:47.593Z,0.00
2018-07-04T00:51:47.586Z,0.00
2018-07-04T00:52:47.565Z,0.00
2018-07-04T00:53:47.701Z,0.00
2018-07-04T00:54:47.553Z,0.00
2018-07-04T00:55:47.554Z,0.00
2018-07-04T00:56:47.533Z,0.00
2018-07-04T00:57:47.534Z,0.00
2018-07-04T00:58:47.524Z,0.00
2018-07-04T00:59:47.517Z,0.00
2018-07-04T01:00:47.510Z,0.00
2018-07-04T01:01:47.494Z,0.00
2018-07-04T01:02:47.488Z,0.00
2018-07-04T01:03:47.529Z,0.00
2018-07-04T01:04:47.483Z,0.00
2018-07-04T01:05:47.475Z,0.00
2018-07-04T01:06:47.449Z,0.00
2018-07-04T01:07:47.440Z,0.00
2018-07-04T01:08:47.545Z,0.00
2018-07-04T01:09:47.505Z,0.00
2018-07-04T01:10:47.426Z,0.00
2018-07-04T01:11:47.424Z,0.00
2018-07-04T01:12:47.420Z,0.00
2018-07-04T01:13:47.382Z,0.00
2018-07-04T01:14:47.400Z,0.00
2018-07-04T01:15:47.405Z,0.00
2018-07-04T01:16:47.362Z,0.00
2018-07-04T01:17:47.380Z,0.00
2018-07-04T01:18:47.359Z,0.00
2018-07-04T01:19:47.370Z,0.00
2018-07-04T01:20:47.345Z,0.00
2018-07-04T01:21:47.334Z,0.00
2018-07-04T01:22:47.315Z,0.00
2018-07-04T01:23:47.312Z,0.00
2018-07-04T01:24:47.303Z,0.00
2018-07-04T01:25:47.326Z,0.00
2018-07-04T01:26:48.328Z,0.00
2018-07-04T01:27:47.288Z,0.00
2018-07-04T01:28:47.287Z,0.00
2018-07-04T01:29:47.266Z,0.00
2018-07-04T01:30:47.298Z,0.00
2018-07-04T01:31:47.251Z,0.00
2018-07-04T01:32:47.261Z,0.00
2018-07-04T01:33:47.235Z,0.00
2018-07-04T01:34:47.830Z,0.00
2018-07-04T01:35:47.209Z,0.00
2018-07-04T01:36:47.577Z,0.00
2018-07-04T01:37:47.214Z,0.00
2018-07-04T01:38:47.217Z,0.00
2018-07-04T01:39:47.178Z,0.00
2018-07-04T01:40:47.187Z,0.00
2018-07-04T01:41:47.180Z,0.00
2018-07-04T01:42:47.364Z,0.00
2018-07-04T01:43:47.149Z,0.00
2018-07-04T01:44:47.136Z,0.00
2018-07-04T01:45:47.125Z,0.00
2018-07-04T01:46:47.116Z,0.00
2018-07-04T01:47:47.149Z,0.00
2018-07-04T01:48:47.317Z,0.00
2018-07-04T01:49:47.097Z,0.00
2018-07-04T01:50:47.904Z,0.00
2018-07-04T01:51:47.087Z,0.00
2018-07-04T01:52:47.128Z,0.00
2018-07-04T01:53:47.095Z,0.00
2018-07-04T01:54:47.057Z,0.00
2018-07-04T01:55:47.033Z,0.00
2018-07-04T01:56:47.073Z,0.00
2018-07-04T01:57:47.065Z,0.00
2018-07-04T01:58:47.024Z,0.00
2018-07-04T01:59:47.010Z,0.00
2018-07-04T02:00:47.008Z,0.00
2018-07-04T02:01:46.984Z,0.00
2018-07-04T02:02:46.978Z,0.00
2018-07-04T02:03:47.016Z,0.00
2018-07-04T02:04:46.968Z,0.00
2018-07-04T02:05:46.965Z,0.00
2018-07-04T02:06:46.989Z,0.00
2018-07-04T02:07:46.957Z,0.00
2018-07-04T02:08:46.938Z,0.00
2018-07-04T02:09:47.065Z,0.00
2018-07-04T02:10:46.913Z,0.00
2018-07-04T02:11:46.929Z,0.00
2018-07-04T02:12:46.912Z,0.00
2018-07-04T02:13:46.889Z,0.00
2018-07-04T02:14:47.847Z,0.00
2018-07-04T02:15:46.919Z,0.00
2018-07-04T02:16:46.870Z,0.00
2018-07-04T02:17:46.877Z,0.00
2018-07-04T02:18:47.056Z,0.00
2018-07-04T02:19:47.370Z,0.00
2018-07-04T02:20:46.835Z,0.00
2018-07-04T02:21:46.820Z,0.00
2018-07-04T02:22:46.804Z,0.00
2018-07-04T02:23:46.931Z,0.00
2018-07-04T02:24:46.838Z,0.00
2018-07-04T02:25:46.788Z,0.00
2018-07-04T02:26:46.777Z,0.00
2018-07-04T02:27:46.805Z,0.00
2018-07-04T02:28:46.757Z,0.00
2018-07-04T02:29:46.756Z,0.00
2018-07-04T02:30:46.894Z,0.00
2018-07-04T02:31:46.741Z,0.00
2018-07-04T02:32:46.736Z,0.00
2018-07-04T02:33:46.887Z,0.00
2018-07-04T02:34:46.703Z,0.00
2018-07-04T02:35:46.730Z,0.00
2018-07-04T02:36:46.691Z,0.00
2018-07-04T02:37:46.684Z,0.00
2018-07-04T02:38:46.670Z,0.00
2018-07-04T02:39:46.661Z,0.00
2018-07-04T02:40:46.666Z,0.00
2018-07-04T02:41:46.658Z,0.00
2018-07-04T02:42:46.653Z,0.00
2018-07-04T02:43:46.627Z,0.00
2018-07-04T02:44:46.616Z,0.00
2018-07-04T02:45:46.624Z,0.00
2018-07-04T02:46:46.633Z,0.00
2018-07-04T02:47:46.595Z,0.00
2018-07-04T02:48:46.591Z,0.00
2018-07-04T02:49:46.566Z,0.00
2018-07-04T02:50:46.596Z,0.00
2018-07-04T02:51:46.558Z,0.00
2018-07-04T02:52:46.555Z,0.00
2018-07-04T02:53:46.531Z,0.00
2018-07-04T02:54:46.534Z,0.00
2018-07-04T02:55:46.695Z,0.00
2018-07-04T02:56:46.519Z,0.00
2018-07-04T02:57:46.502Z,0.00
2018-07-04T02:58:46.500Z,0.00
2018-07-04T02:59:46.488Z,0.00
2018-07-04T03:00:46.478Z,0.00
2018-07-04T03:01:46.469Z,0.00
2018-07-04T03:02:46.458Z,0.00
2018-07-04T03:03:46.463Z,0.00
2018-07-04T03:04:46.434Z,0.00
2018-07-04T03:05:46.437Z,0.00
2018-07-04T03:06:46.449Z,0.00
2018-07-04T03:07:46.416Z,0.00
2018-07-04T03:08:46.439Z,0.00
2018-07-04T03:09:46.409Z,0.00
2018-07-04T03:10:46.394Z,0.00
2018-07-04T03:11:46.420Z,0.00
2018-07-04T03:12:46.378Z,0.00
2018-07-04T03:13:46.368Z,0.00
2018-07-04T03:14:46.388Z,0.00
2018-07-04T03:15:46.347Z,0.00
2018-07-04T03:16:46.335Z,0.00
2018-07-04T03:17:46.427Z,0.00
2018-07-04T03:18:46.309Z,0.00
2018-07-04T03:19:46.340Z,0.00
2018-07-04T03:20:46.306Z,0.00
2018-07-04T03:21:46.291Z,0.00
2018-07-04T03:22:46.310Z,0.00
2018-07-04T03:23:46.261Z,0.00
2018-07-04T03:24:46.442Z,0.00
2018-07-04T03:25:46.253Z,0.00
2018-07-04T03:26:46.249Z,0.00
2018-07-04T03:27:46.240Z,5.63
2018-07-04T03:28:46.236Z,5.63
2018-07-04T03:29:46.220Z,5.63
2018-07-04T03:30:46.232Z,5.63
2018-07-04T03:31:46.207Z,5.63
2018-07-04T03:32:46.192Z,5.63
2018-07-04T03:33:46.188Z,5.63
2018-07-04T03:34:46.206Z,5.63
2018-07-04T03:35:46.153Z,5.63
2018-07-04T03:36:46.150Z,5.63
2018-07-04T03:37:46.137Z,5.63
2018-07-04T03:38:46.131Z,5.63
2018-07-04T03:39:46.295Z,5.63
2018-07-04T03:40:46.122Z,5.63
2018-07-04T03:41:46.097Z,5.63
2018-07-04T03:42:46.090Z,11.25
2018-07-04T03:43:46.081Z,11.25
2018-07-04T03:44:46.078Z,11.25
2018-07-04T03:45:46.086Z,11.25
2018-07-04T03:46:46.065Z,11.25
2018-07-04T03:47:46.053Z,11.25
2018-07-04T03:48:46.040Z,11.25
2018-07-04T03:49:46.029Z,11.25
2018-07-04T03:50:46.049Z,11.25
2018-07-04T03:51:46.012Z,11.25
2018-07-04T03:52:46.004Z,11.25
2018-07-04T03:53:45.984Z,11.25
2018-07-04T03:54:45.980Z,11.25
2018-07-04T03:55:46.044Z,11.25
2018-07-04T03:56:45.968Z,16.88
2018-07-04T03:57:45.955Z,16.88
2018-07-04T03:58:45.944Z,16.88
2018-07-04T03:59:45.937Z,16.88
2018-07-04T04:00:45.920Z,16.88
2018-07-04T04:01:45.956Z,16.88
2018-07-04T04:02:45.903Z,16.88
2018-07-04T04:03:45.903Z,16.88
2018-07-04T04:04:45.900Z,16.88
2018-07-04T04:05:45.879Z,16.88
2018-07-04T04:06:45.914Z,16.88
2018-07-04T04:07:45.860Z,16.88
2018-07-04T04:08:45.854Z,16.88
2018-07-04T04:09:45.843Z,22.50
2018-07-04T04:10:45.854Z,22.50
2018-07-04T04:11:45.828Z,22.50
2018-07-04T04:12:45.849Z,22.50
2018-07-04T04:13:45.803Z,22.50
2018-07-04T04:14:45.796Z,22.50
2018-07-04T04:15:45.915Z,22.50
2018-07-04T04:16:45.768Z,22.50
2018-07-04T04:17:45.767Z,22.50
2018-07-04T04:18:45.753Z,22.50
2018-07-04T04:19:45.799Z,22.50
2018-07-04T04:20:45.741Z,22.50
2018-07-04T04:21:45.727Z,22.50
2018-07-04T04:22:45.750Z,22.50
2018-07-04T04:23:45.716Z,22.50
2018-07-04T04:24:45.696Z,22.50
2018-07-04T04:25:45.686Z,28.13
2018-07-04T04:26:45.688Z,28.13
2018-07-04T04:27:45.713Z,28.13
2018-07-04T04:28:45.666Z,28.13
2018-07-04T04:29:45.648Z,28.13
2018-07-04T04:30:45.699Z,28.13
2018-07-04T04:31:45.621Z,28.13
2018-07-04T04:32:45.619Z,28.13
2018-07-04T04:33:45.658Z,28.13
2018-07-04T04:34:45.596Z,28.13
2018-07-04T04:35:45.590Z,28.13
2018-07-04T04:36:45.644Z,28.13
2018-07-04T04:37:45.579Z,33.75
2018-07-04T04:38:45.562Z,33.75
2018-07-04T04:39:45.557Z,33.75
2018-07-04T04:40:45.546Z,33.75
2018-07-04T04:41:45.535Z,33.75
2018-07-04T04:42:45.538Z,33.75
2018-07-04T04:43:45.543Z,33.75
2018-07-04T04:44:45.520Z,33.75
2018-07-04T04:45:45.511Z,33.75
2018-07-04T04:46:45.491Z,33.75
2018-07-04T04:47:45.478Z,33.75
2018-07-04T04:48:45.508Z,33.75
2018-07-04T04:49:45.461Z,33.75
2018-07-04T04:50:45.455Z,33.75
2018-07-04T04:51:45.446Z,33.75
2018-07-04T04:52:45.459Z,33.75
2018-07-04T04:53:45.424Z,33.75
2018-07-04T04:54:45.457Z,33.75
2018-07-04T04:55:45.419Z,33.75
2018-07-04T04:56:45.400Z,33.75
2018-07-04T04:57:45.390Z,33.75
2018-07-04T04:58:45.382Z,33.75
2018-07-04T04:59:45.367Z,33.75
2018-07-04T05:00:45.394Z,33.75
2018-07-04T05:01:45.349Z,33.75
2018-07-04T05:02:45.332Z,33.75
2018-07-04T05:03:45.337Z,33.75
2018-07-04T05:04:45.329Z,33.75
2018-07-04T05:05:45.318Z,33.75
2018-07-04T05:06:45.307Z,33.75
2018-07-04T05:07:45.344Z,33.75
2018-07-04T05:08:45.448Z,33.75
2018-07-04T05:09:45.276Z,33.75
2018-07-04T05:10:45.271Z,33.75
2018-07-04T05:11:45.269Z,39.38
2018-07-04T05:12:45.250Z,39.38
2018-07-04T05:13:45.234Z,39.38
2018-07-04T05:14:45.233Z,39.38
2018-07-04T05:15:45.399Z,39.38
2018-07-04T05:16:45.219Z,39.38
2018-07-04T05:17:45.201Z,39.38
2018-07-04T05:18:45.195Z,39.38
2018-07-04T05:19:45.196Z,39.38
2018-07-04T05:20:45.242Z,39.38
2018-07-04T05:21:45.171Z,39.38
2018-07-04T05:22:45.163Z,39.38
2018-07-04T05:23:45.154Z,39.38
2018-07-04T05:24:45.152Z,39.38
2018-07-04T05:25:45.133Z,39.38
2018-07-04T05:26:45.158Z,39.38
2018-07-04T05:27:45.130Z,39.38
2018-07-04T05:28:45.106Z,39.38
2018-07-04T05:29:45.099Z,39.38
2018-07-04T05:30:45.155Z,39.38
2018-07-04T05:31:45.118Z,33.75
2018-07-04T05:32:45.177Z,39.38
2018-07-04T05:33:45.067Z,39.38
2018-07-04T05:34:45.055Z,39.38
2018-07-04T05:35:45.055Z,39.38
2018-07-04T05:36:45.178Z,39.38
2018-07-04T05:37:45.049Z,39.38
2018-07-04T05:38:45.024Z,39.38
2018-07-04T05:39:45.019Z,39.38
2018-07-04T05:40:45.010Z,39.38
2018-07-04T05:41:45.001Z,39.38
2018-07-04T05:42:45.024Z,39.38
2018-07-04T05:43:44.986Z,39.38
2018-07-04T05:44:44.972Z,39.38
2018-07-04T05:45:44.975Z,39.38
2018-07-04T05:46:44.959Z,39.38
2018-07-04T05:47:45.316Z,39.38
2018-07-04T05:48:44.936Z,45.00
2018-07-04T05:49:44.934Z,45.00
2018-07-04T05:50:44.919Z,45.00
2018-07-04T05:51:44.908Z,45.00
2018-07-04T05:52:44.910Z,45.00
2018-07-04T05:53:44.964Z,45.00
2018-07-04T05:54:44.890Z,45.00
2018-07-04T05:55:44.879Z,45.00
2018-07-04T05:56:44.862Z,45.00
2018-07-04T05:57:44.864Z,45.00
2018-07-04T05:58:44.857Z,45.00
2018-07-04T05:59:44.855Z,50.63
2018-07-04T06:00:44.837Z,50.63
2018-07-04T06:01:44.815Z,50.63
2018-07-04T06:02:44.875Z,50.63
2018-07-04T06:03:44.863Z,50.63
2018-07-04T06:04:44.805Z,56.25
2018-07-04T06:05:44.855Z,56.25
2018-07-04T06:06:44.779Z,56.25
2018-07-04T06:07:44.778Z,56.25
2018-07-04T06:08:45.074Z,56.25
2018-07-04T06:09:44.756Z,56.25
2018-07-04T06:10:44.768Z,56.25
2018-07-04T06:11:44.740Z,56.25
2018-07-04T06:12:44.732Z,56.25
2018-07-04T06:13:44.721Z,56.25
2018-07-04T06:14:44.767Z,56.25
2018-07-04T06:15:44.717Z,61.88
2018-07-04T06:16:44.730Z,56.25
2018-07-04T06:17:44.821Z,61.88
2018-07-04T06:18:44.692Z,56.25
2018-07-04T06:19:44.703Z,56.25
2018-07-04T06:20:44.673Z,56.25
2018-07-04T06:21:44.692Z,56.25
2018-07-04T06:22:44.653Z,56.25
2018-07-04T06:23:44.647Z,56.25
2018-07-04T06:24:44.676Z,56.25
2018-07-04T06:25:44.616Z,56.25
2018-07-04T06:26:44.663Z,56.25
2018-07-04T06:27:44.606Z,56.25
2018-07-04T06:28:44.602Z,61.88
2018-07-04T06:29:44.597Z,61.88
2018-07-04T06:30:45.940Z,61.88
2018-07-04T06:31:44.584Z,61.88
2018-07-04T06:32:44.576Z,56.25
2018-07-04T06:33:44.558Z,61.88
2018-07-04T06:34:44.554Z,61.88
2018-07-04T06:35:44.537Z,61.88
2018-07-04T06:36:44.554Z,61.88
2018-07-04T06:37:44.526Z,61.88
2018-07-04T06:38:44.528Z,61.88
2018-07-04T06:39:44.519Z,61.88
2018-07-04T06:40:44.537Z,61.88
2018-07-04T06:41:44.498Z,61.88
2018-07-04T06:42:44.524Z,61.88
2018-07-04T06:43:44.479Z,61.88
2018-07-04T06:44:44.479Z,61.88
2018-07-04T06:45:44.493Z,61.88
2018-07-04T06:46:44.452Z,61.88
2018-07-04T06:47:44.464Z,61.88
2018-07-04T06:48:44.450Z,61.88
2018-07-04T06:49:44.425Z,67.50
2018-07-04T06:50:44.482Z,61.88
2018-07-04T06:51:44.436Z,67.50
2018-07-04T06:52:44.440Z,61.88
2018-07-04T06:53:44.414Z,67.50
2018-07-04T06:54:44.395Z,67.50
2018-07-04T06:55:44.390Z,67.50
2018-07-04T06:56:44.396Z,67.50
2018-07-04T06:57:44.516Z,67.50
2018-07-04T06:58:44.370Z,67.50
2018-07-04T06:59:44.406Z,67.50
2018-07-04T07:00:44.354Z,67.50
2018-07-04T07:01:44.402Z,61.88
2018-07-04T07:02:44.345Z,67.50
2018-07-04T07:03:44.369Z,61.88
2018-07-04T07:04:44.388Z,61.88
2018-07-04T07:05:44.315Z,61.88
2018-07-04T07:06:44.315Z,61.88
2018-07-04T07:07:44.290Z,61.88
2018-07-04T07:08:44.285Z,61.88
2018-07-04T07:09:44.298Z,61.88
2018-07-04T07:10:44.311Z,67.50
2018-07-04T07:11:44.304Z,67.50
2018-07-04T07:12:44.256Z,67.50
2018-07-04T07:13:44.252Z,67.50
2018-07-04T07:14:44.303Z,67.50
2018-07-04T07:15:44.245Z,67.50
2018-07-04T07:16:44.255Z,67.50
2018-07-04T07:17:44.219Z,67.50
2018-07-04T07:18:44.221Z,67.50
2018-07-04T07:19:44.217Z,67.50
2018-07-04T07:20:44.264Z,73.13
2018-07-04T07:21:44.209Z,73.13
2018-07-04T07:22:44.196Z,73.13
2018-07-04T07:23:44.191Z,73.13
2018-07-04T07:24:44.185Z,78.75
2018-07-04T07:25:44.159Z,78.75
2018-07-04T07:26:44.188Z,78.75
2018-07-04T07:27:44.219Z,78.75
2018-07-04T07:28:44.145Z,78.75
2018-07-04T07:29:44.133Z,78.75
2018-07-04T07:30:44.129Z,78.75
2018-07-04T07:31:44.867Z,78.75
2018-07-04T07:32:44.233Z,84.38
2018-07-04T07:33:44.764Z,84.38
2018-07-04T07:34:44.278Z,84.38
2018-07-04T07:35:44.103Z,84.38
2018-07-04T07:36:44.103Z,84.38
2018-07-04T07:37:44.125Z,90.00
2018-07-04T07:38:44.089Z,90.00
2018-07-04T07:39:44.068Z,90.00
2018-07-04T07:40:44.180Z,90.00
2018-07-04T07:41:44.535Z,84.38
2018-07-04T07:42:44.055Z,95.63
2018-07-04T07:43:44.032Z,90.00
2018-07-04T07:44:44.033Z,90.00
2018-07-04T07:45:44.033Z,90.00
2018-07-04T07:46:44.023Z,95.63
2018-07-04T07:47:44.041Z,95.63
2018-07-04T07:48:44.081Z,95.63
2018-07-04T07:49:43.988Z,95.63
2018-07-04T07:50:44.036Z,95.63
2018-07-04T07:53:39.678Z,95.63
2018-07-04T07:54:38.074Z,95.63
2018-07-04T07:55:40.664Z,95.63
2018-07-04T07:56:38.061Z,95.63
2018-07-04T07:57:38.168Z,95.63
2018-07-04T07:58:45.804Z,95.63
2018-07-04T07:59:38.085Z,101.25
2018-07-04T08:00:38.068Z,101.25
2018-07-04T08:01:48.342Z,101.25
2018-07-04T08:03:29.195Z,101.25
2018-07-04T08:03:38.042Z,106.88
2018-07-04T08:04:38.099Z,101.25
2018-07-04T08:05:38.043Z,101.25
2018-07-04T08:06:38.008Z,95.63
2018-07-04T08:07:38.004Z,95.63
2018-07-04T08:08:37.976Z,106.88
2018-07-04T08:09:38.024Z,101.25
2018-07-04T08:10:37.977Z,101.25
2018-07-04T08:11:37.971Z,106.88
2018-07-04T08:12:37.974Z,106.88
2018-07-04T08:13:37.959Z,101.25
2018-07-04T08:14:37.980Z,106.88
2018-07-04T08:15:37.942Z,118.13
2018-07-04T08:16:38.077Z,112.50
2018-07-04T08:17:37.932Z,112.50
2018-07-04T08:18:38.886Z,112.50
2018-07-04T08:19:37.936Z,112.50
2018-07-04T08:20:37.906Z,112.50
2018-07-04T08:21:37.955Z,112.50
2018-07-04T08:22:37.945Z,118.13
2018-07-04T08:23:37.909Z,118.13
2018-07-04T08:24:37.887Z,118.13
2018-07-04T08:25:37.980Z,123.75
2018-07-04T08:26:37.863Z,129.38
2018-07-04T08:27:37.909Z,129.38
2018-07-04T08:28:38.294Z,129.38
2018-07-04T08:29:37.850Z,129.38
2018-07-04T08:30:37.862Z,135.00
2018-07-04T08:31:37.849Z,146.25
2018-07-04T08:32:37.837Z,146.25
2018-07-04T08:33:37.833Z,151.88
2018-07-04T08:34:37.829Z,157.50
2018-07-04T08:35:37.825Z,163.13
2018-07-04T08:36:37.811Z,163.13
2018-07-04T08:37:37.811Z,151.88
2018-07-04T08:38:37.797Z,140.63
2018-07-04T08:39:37.807Z,135.00
2018-07-04T08:40:37.789Z,135.00
2018-07-04T08:41:37.803Z,129.38
2018-07-04T08:42:37.775Z,135.00
2018-07-04T08:43:37.772Z,140.63
2018-07-04T08:44:37.953Z,157.50
2018-07-04T08:45:37.763Z,180.00
2018-07-04T08:46:37.763Z,208.13
2018-07-04T08:47:37.777Z,219.38
2018-07-04T08:48:37.752Z,219.38
2018-07-04T08:49:37.753Z,230.63
2018-07-04T08:50:37.800Z,230.63
2018-07-04T08:51:37.746Z,230.63
2018-07-04T08:52:37.787Z,236.25
2018-07-04T08:53:37.743Z,253.13
2018-07-04T08:54:37.746Z,258.75
2018-07-04T08:55:37.747Z,281.25
2018-07-04T08:56:37.737Z,286.88
2018-07-04T08:57:37.727Z,298.13
2018-07-04T08:58:37.740Z,303.75
2018-07-04T08:59:37.721Z,309.38
2018-07-04T09:00:37.808Z,320.63
2018-07-04T09:01:37.734Z,337.50
2018-07-04T09:02:37.735Z,360.00
2018-07-04T09:03:37.732Z,365.63
2018-07-04T09:04:37.727Z,376.88
2018-07-04T09:05:37.788Z,388.13
2018-07-04T09:06:37.748Z,416.25
2018-07-04T09:07:37.764Z,455.63
2018-07-04T09:08:37.737Z,630.00
2018-07-04T09:09:37.732Z,1091.25
2018-07-04T09:10:37.758Z,1710.00
2018-07-04T09:11:37.787Z,2193.75
2018-07-04T09:12:37.738Z,2176.88
2018-07-04T09:13:37.738Z,2199.38
2018-07-04T09:14:37.741Z,2328.75
2018-07-04T09:15:37.774Z,2227.50
2018-07-04T09:16:37.767Z,2255.63
2018-07-04T09:17:37.805Z,2053.13
2018-07-04T09:18:37.741Z,2205.00
2018-07-04T09:19:37.760Z,2559.38
2018-07-04T09:20:37.760Z,2643.75
2018-07-04T09:21:37.751Z,2497.50
2018-07-04T09:22:37.751Z,2480.63
2018-07-04T09:23:37.805Z,2525.63
2018-07-04T09:24:37.827Z,2520.00
2018-07-04T09:25:37.766Z,2553.75
2018-07-04T09:26:37.773Z,2525.63
2018-07-04T09:27:37.838Z,2497.50
2018-07-04T09:28:37.787Z,2593.13
2018-07-04T09:29:37.791Z,2570.63
2018-07-04T09:30:37.787Z,2632.50
2018-07-04T09:31:37.806Z,2593.13
2018-07-04T09:32:37.840Z,2390.63
2018-07-04T09:33:37.807Z,2446.88
2018-07-04T09:34:37.807Z,2711.25
2018-07-04T09:35:37.810Z,2446.88
2018-07-04T09:36:37.817Z,2390.63
2018-07-04T09:37:37.819Z,2722.50
2018-07-04T09:38:37.832Z,3043.13
2018-07-04T09:39:37.825Z,3093.75
2018-07-04T09:40:37.823Z,2666.25
2018-07-04T09:41:37.842Z,2615.63
2018-07-04T09:42:37.848Z,2756.25
2018-07-04T09:43:37.846Z,2615.63
2018-07-04T09:44:37.851Z,2655.00
2018-07-04T09:45:38.086Z,2565.00
2018-07-04T09:46:38.739Z,2705.63
2018-07-04T09:47:37.919Z,2812.50
2018-07-04T09:48:37.941Z,3031.88
2018-07-04T09:49:37.939Z,2885.63
2018-07-04T09:50:37.886Z,2790.00
2018-07-04T09:51:37.884Z,2497.50
2018-07-04T09:52:37.898Z,2913.75
2018-07-04T09:53:37.903Z,3048.75
2018-07-04T09:54:37.920Z,3155.63
2018-07-04T09:55:37.910Z,2880.00
2018-07-04T09:56:37.931Z,2851.88
2018-07-04T09:57:37.929Z,2328.75
2018-07-04T09:58:37.927Z,1513.13
2018-07-04T09:59:37.950Z,1636.88
2018-07-04T10:00:37.945Z,1361.25
2018-07-04T10:01:37.954Z,1721.25
2018-07-04T10:02:37.948Z,1957.50
2018-07-04T10:03:37.957Z,1462.50
2018-07-04T10:04:38.130Z,1035.00
2018-07-04T10:05:38.017Z,2317.50
2018-07-04T10:06:37.977Z,1749.38
2018-07-04T10:07:37.991Z,2334.38
2018-07-04T10:08:37.990Z,2053.13
2018-07-04T10:09:37.991Z,1895.63
2018-07-04T10:10:38.004Z,1361.25
2018-07-04T10:11:38.001Z,905.63
2018-07-04T10:12:38.018Z,967.50
2018-07-04T10:13:38.062Z,601.88
2018-07-04T10:14:38.014Z,680.63
2018-07-04T10:15:38.021Z,838.13
2018-07-04T10:16:38.024Z,1440.00
2018-07-04T10:17:38.021Z,2880.00
2018-07-04T10:18:38.078Z,2885.63
2018-07-04T10:19:38.034Z,3155.63
2018-07-04T10:20:38.072Z,3290.63
2018-07-04T10:21:38.058Z,3442.50
2018-07-04T10:22:38.058Z,3195.00
2018-07-04T10:23:38.053Z,3082.50
2018-07-04T10:24:38.071Z,3127.50
2018-07-04T10:25:38.096Z,3386.25
2018-07-04T10:26:38.066Z,3262.50
2018-07-04T10:27:38.113Z,3183.75
2018-07-04T10:28:38.074Z,3369.38
2018-07-04T10:29:38.089Z,3436.88
2018-07-04T10:30:38.078Z,3352.50
2018-07-04T10:31:38.110Z,3211.88
2018-07-04T10:32:38.110Z,3161.25
2018-07-04T10:33:38.106Z,3133.13
2018-07-04T10:34:38.122Z,3262.50
2018-07-04T10:35:38.116Z,3088.13
2018-07-04T10:36:38.162Z,3155.63
2018-07-04T10:37:38.135Z,3133.13
2018-07-04T10:38:38.165Z,3273.75
2018-07-04T10:39:38.150Z,3195.00
2018-07-04T10:40:38.166Z,3155.63
2018-07-04T10:41:38.165Z,3324.38
2018-07-04T10:42:38.305Z,3273.75
2018-07-04T10:43:38.307Z,3217.50
2018-07-04T10:44:38.179Z,3234.38
2018-07-04T10:45:38.196Z,3088.13
2018-07-04T10:46:38.199Z,2818.13
2018-07-04T10:47:38.206Z,2986.88
2018-07-04T10:48:38.385Z,3301.88
2018-07-04T10:49:38.284Z,3510.00
2018-07-04T10:50:38.404Z,3470.63
2018-07-04T10:51:38.288Z,3470.63
2018-07-04T10:52:38.229Z,3673.13
2018-07-04T10:53:38.232Z,3588.75
2018-07-04T10:54:38.409Z,3481.88
2018-07-04T10:55:38.252Z,3543.75
2018-07-04T10:56:38.292Z,3521.25
2018-07-04T10:57:38.283Z,2986.88
2018-07-04T10:58:38.285Z,3088.13
2018-07-04T10:59:38.438Z,2806.88
2018-07-04T11:00:38.298Z,1642.50
2018-07-04T11:01:38.292Z,877.50
2018-07-04T11:02:38.299Z,922.50
2018-07-04T11:03:38.321Z,714.38
2018-07-04T11:04:38.519Z,1293.75
2018-07-04T11:05:38.342Z,1192.50
2018-07-04T11:06:38.332Z,1518.75
2018-07-04T11:07:38.339Z,2863.13
2018-07-04T11:08:38.341Z,3470.63
2018-07-04T11:09:38.366Z,3431.25
2018-07-04T11:10:38.405Z,3459.38
2018-07-04T11:11:38.372Z,3403.13
2018-07-04T11:12:38.380Z,3313.13
2018-07-04T11:13:38.376Z,3223.13
2018-07-04T11:14:38.432Z,3290.63
2018-07-04T11:15:38.412Z,3386.25
2018-07-04T11:16:38.425Z,3363.75
2018-07-04T11:17:38.447Z,3234.38
2018-07-04T11:18:38.457Z,2857.50
2018-07-04T11:19:38.428Z,3105.00
2018-07-04T11:20:38.445Z,3318.75
2018-07-04T11:21:38.447Z,3273.75
2018-07-04T11:22:38.506Z,3189.38
2018-07-04T11:23:38.480Z,3251.25
2018-07-04T11:24:38.467Z,3273.75
2018-07-04T11:25:38.622Z,3144.38
2018-07-04T11:26:38.512Z,3279.38
2018-07-04T11:27:38.499Z,3296.25
2018-07-04T11:28:38.503Z,3116.25
2018-07-04T11:29:38.510Z,3048.75
2018-07-04T11:30:38.517Z,3003.75
2018-07-04T11:31:38.553Z,2880.00
2018-07-04T11:32:38.519Z,3065.63
2018-07-04T11:33:38.540Z,3015.00
2018-07-04T11:34:38.541Z,3054.38
2018-07-04T11:35:38.568Z,3268.13
2018-07-04T11:36:38.595Z,3386.25
2018-07-04T11:37:38.569Z,3099.38
2018-07-04T11:38:38.594Z,1575.00
2018-07-04T11:39:38.574Z,2784.38
2018-07-04T11:40:38.591Z,2795.63
2018-07-04T11:41:38.605Z,3279.38
2018-07-04T11:42:38.664Z,3150.00
2018-07-04T11:43:38.617Z,3144.38
2018-07-04T11:44:38.626Z,3138.75
2018-07-04T11:45:38.631Z,3054.38
2018-07-04T11:46:38.640Z,3037.50
2018-07-04T11:47:38.647Z,2970.00
2018-07-04T11:48:38.781Z,2919.38
2018-07-04T11:49:38.671Z,2998.13
2018-07-04T11:50:38.674Z,1867.50
2018-07-04T11:51:38.679Z,303.75
2018-07-04T11:52:38.693Z,253.13
2018-07-04T11:53:38.708Z,241.88
2018-07-04T11:54:38.775Z,236.25
2018-07-04T11:55:38.705Z,225.00
2018-07-04T11:56:38.732Z,219.38
2018-07-04T11:57:38.732Z,337.50
2018-07-04T11:58:38.738Z,393.75
2018-07-04T11:59:38.777Z,331.88
2018-07-04T12:00:38.746Z,326.25
2018-07-04T12:01:38.760Z,264.38
2018-07-04T12:02:38.761Z,275.63
2018-07-04T12:03:38.762Z,1288.13
2018-07-04T12:04:38.915Z,281.25
2018-07-04T12:05:38.772Z,202.50
2018-07-04T12:06:38.779Z,196.88
2018-07-04T12:07:38.794Z,191.25
2018-07-04T12:08:38.780Z,191.25
2018-07-04T12:09:38.788Z,191.25
2018-07-04T12:10:38.808Z,191.25
2018-07-04T12:11:38.796Z,191.25
2018-07-04T12:12:38.805Z,196.88
2018-07-04T12:13:38.807Z,185.63
2018-07-04T12:14:38.810Z,180.00
2018-07-04T12:15:38.858Z,185.63
2018-07-04T12:16:38.821Z,180.00
2018-07-04T12:17:38.823Z,180.00
2018-07-04T12:18:38.825Z,185.63
2018-07-04T12:19:38.830Z,180.00
2018-07-04T12:20:38.837Z,180.00
2018-07-04T12:21:38.829Z,180.00
2018-07-04T12:22:38.836Z,180.00
2018-07-04T12:23:38.832Z,174.38
2018-07-04T12:24:38.833Z,174.38
2018-07-04T12:25:38.882Z,174.38
2018-07-04T12:26:38.890Z,174.38
2018-07-04T12:27:38.844Z,174.38
2018-07-04T12:28:39.006Z,174.38
2018-07-04T12:29:38.864Z,174.38
2018-07-04T12:30:38.852Z,174.38
2018-07-04T12:31:38.849Z,180.00
2018-07-04T12:32:38.974Z,180.00
2018-07-04T12:33:38.849Z,180.00
2018-07-04T12:34:38.854Z,191.25
2018-07-04T12:35:38.851Z,399.38
2018-07-04T12:36:38.867Z,478.13
2018-07-04T12:37:38.855Z,191.25
2018-07-04T12:38:38.865Z,219.38
2018-07-04T12:39:38.858Z,191.25
2018-07-04T12:40:38.914Z,185.63
2018-07-04T12:41:38.854Z,185.63
2018-07-04T12:42:38.943Z,185.63
2018-07-04T12:43:38.884Z,185.63
2018-07-04T12:44:38.863Z,185.63
2018-07-04T12:45:39.584Z,185.63
2018-07-04T12:46:38.882Z,185.63
2018-07-04T12:47:38.868Z,202.50